sensor_id;sensor_type;location;lat;lon;timestamp;P1;durP1;ratioP1;P2;durP2;ratioP2
68192;SDS011;55012;47.562;18.414;2022-09-02T00:00:57;4.35;;;1.50;;
68192;SDS011;55012;47.562;18.414;2022-09-02T00:03:27;2.13;;;1.42;;
68192;SDS011;55012;47.562;18.414;2022-09-02T00:05:54;3.70;;;1.40;;
68192;SDS011;55012;47.562;18.414;2022-09-02T00:08:19;2.80;;;1.20;;
68192;SDS011;55012;47.562;18.414;2022-09-02T00:10:45;3.58;;;1.38;;
68192;SDS011;55012;47.562;18.414;2022-09-02T00:13:11;2.47;;;1.33;;
68192;SDS011;55012;47.562;18.414;2022-09-02T00:15:39;2.40;;;1.60;;
68192;SDS011;55012;47.562;18.414;2022-09-02T00:18:06;4.25;;;2.88;;
68192;SDS011;55012;47.562;18.414;2022-09-02T00:20:32;6.35;;;2.55;;
68192;SDS011;55012;47.562;18.414;2022-09-02T00:22:58;3.75;;;2.30;;
68192;SDS011;55012;47.562;18.414;2022-09-02T00:25:24;3.78;;;2.63;;
68192;SDS011;55012;47.562;18.414;2022-09-02T00:27:50;5.95;;;2.60;;
68192;SDS011;55012;47.562;18.414;2022-09-02T00:30:16;4.45;;;2.67;;
68192;SDS011;55012;47.562;18.414;2022-09-02T00:32:41;6.60;;;2.80;;
68192;SDS011;55012;47.562;18.414;2022-09-02T00:35:07;5.07;;;3.10;;
68192;SDS011;55012;47.562;18.414;2022-09-02T00:37:33;5.13;;;3.40;;
68192;SDS011;55012;47.562;18.414;2022-09-02T00:40:00;4.65;;;2.90;;
68192;SDS011;55012;47.562;18.414;2022-09-02T00:42:25;7.80;;;3.70;;
68192;SDS011;55012;47.562;18.414;2022-09-02T00:44:51;3.95;;;2.58;;
68192;SDS011;55012;47.562;18.414;2022-09-02T00:47:17;4.05;;;2.15;;
68192;SDS011;55012;47.562;18.414;2022-09-02T00:49:44;4.50;;;2.50;;
68192;SDS011;55012;47.562;18.414;2022-09-02T00:52:18;3.97;;;1.90;;
68192;SDS011;55012;47.562;18.414;2022-09-02T00:54:46;5.78;;;1.80;;
68192;SDS011;55012;47.562;18.414;2022-09-02T00:57:17;3.85;;;1.70;;
68192;SDS011;55012;47.562;18.414;2022-09-02T00:59:50;4.32;;;1.63;;
68192;SDS011;55012;47.562;18.414;2022-09-02T01:02:22;4.93;;;1.80;;
68192;SDS011;55012;47.562;18.414;2022-09-02T01:04:49;5.07;;;1.50;;
68192;SDS011;55012;47.562;18.414;2022-09-02T01:07:15;5.18;;;1.70;;
68192;SDS011;55012;47.562;18.414;2022-09-02T01:09:41;6.47;;;1.67;;
68192;SDS011;55012;47.562;18.414;2022-09-02T01:12:07;17.90;;;2.20;;
68192;SDS011;55012;47.562;18.414;2022-09-02T01:14:33;18.75;;;2.42;;
68192;SDS011;55012;47.562;18.414;2022-09-02T01:16:59;22.83;;;2.20;;
68192;SDS011;55012;47.562;18.414;2022-09-02T01:19:28;12.95;;;2.30;;
68192;SDS011;55012;47.562;18.414;2022-09-02T01:22:00;5.30;;;1.80;;
68192;SDS011;55012;47.562;18.414;2022-09-02T01:24:30;4.47;;;1.85;;
68192;SDS011;55012;47.562;18.414;2022-09-02T01:26:57;10.57;;;2.00;;
68192;SDS011;55012;47.562;18.414;2022-09-02T01:29:23;16.40;;;2.67;;
68192;SDS011;55012;47.562;18.414;2022-09-02T01:31:50;12.82;;;2.50;;
68192;SDS011;55012;47.562;18.414;2022-09-02T01:34:16;14.55;;;2.20;;
68192;SDS011;55012;47.562;18.414;2022-09-02T01:36:42;11.48;;;2.25;;
68192;SDS011;55012;47.562;18.414;2022-09-02T01:39:09;18.20;;;2.42;;
68192;SDS011;55012;47.562;18.414;2022-09-02T01:41:36;16.88;;;2.50;;
68192;SDS011;55012;47.562;18.414;2022-09-02T01:44:02;18.10;;;2.17;;
68192;SDS011;55012;47.562;18.414;2022-09-02T01:46:30;8.48;;;1.80;;
68192;SDS011;55012;47.562;18.414;2022-09-02T01:48:56;10.98;;;2.00;;
68192;SDS011;55012;47.562;18.414;2022-09-02T01:51:22;6.40;;;1.92;;
68192;SDS011;55012;47.562;18.414;2022-09-02T01:53:48;12.77;;;2.92;;
68192;SDS011;55012;47.562;18.414;2022-09-02T01:56:14;3.58;;;1.50;;
68192;SDS011;55012;47.562;18.414;2022-09-02T01:58:40;7.95;;;2.55;;
68192;SDS011;55012;47.562;18.414;2022-09-02T02:01:06;6.50;;;1.80;;
68192;SDS011;55012;47.562;18.414;2022-09-02T02:03:33;4.97;;;2.10;;
68192;SDS011;55012;47.562;18.414;2022-09-02T02:06:00;5.45;;;1.48;;
68192;SDS011;55012;47.562;18.414;2022-09-02T02:08:27;3.97;;;1.60;;
68192;SDS011;55012;47.562;18.414;2022-09-02T02:10:52;3.63;;;1.60;;
68192;SDS011;55012;47.562;18.414;2022-09-02T02:13:18;6.70;;;1.58;;
68192;SDS011;55012;47.562;18.414;2022-09-02T02:15:44;6.13;;;1.70;;
68192;SDS011;55012;47.562;18.414;2022-09-02T02:18:10;6.60;;;1.60;;
68192;SDS011;55012;47.562;18.414;2022-09-02T02:20:36;4.03;;;1.60;;
68192;SDS011;55012;47.562;18.414;2022-09-02T02:23:02;5.03;;;1.98;;
68192;SDS011;55012;47.562;18.414;2022-09-02T02:25:29;6.15;;;1.70;;
68192;SDS011;55012;47.562;18.414;2022-09-02T02:27:55;7.88;;;2.00;;
68192;SDS011;55012;47.562;18.414;2022-09-02T02:30:21;15.30;;;2.30;;
68192;SDS011;55012;47.562;18.414;2022-09-02T02:32:47;10.02;;;2.45;;
68192;SDS011;55012;47.562;18.414;2022-09-02T02:35:13;17.95;;;2.33;;
68192;SDS011;55012;47.562;18.414;2022-09-02T02:37:40;22.33;;;3.35;;
68192;SDS011;55012;47.562;18.414;2022-09-02T02:40:06;21.52;;;3.03;;
68192;SDS011;55012;47.562;18.414;2022-09-02T02:42:34;23.27;;;2.75;;
68192;SDS011;55012;47.562;18.414;2022-09-02T02:44:59;19.67;;;2.63;;
68192;SDS011;55012;47.562;18.414;2022-09-02T02:47:25;19.60;;;2.58;;
68192;SDS011;55012;47.562;18.414;2022-09-02T02:49:51;20.58;;;2.22;;
68192;SDS011;55012;47.562;18.414;2022-09-02T02:52:17;11.10;;;1.92;;
68192;SDS011;55012;47.562;18.414;2022-09-02T02:54:43;9.98;;;2.15;;
68192;SDS011;55012;47.562;18.414;2022-09-02T02:57:08;9.05;;;1.80;;
68192;SDS011;55012;47.562;18.414;2022-09-02T02:59:35;7.35;;;1.70;;
68192;SDS011;55012;47.562;18.414;2022-09-02T03:02:02;10.25;;;1.73;;
68192;SDS011;55012;47.562;18.414;2022-09-02T03:04:28;8.07;;;1.77;;
68192;SDS011;55012;47.562;18.414;2022-09-02T03:06:53;6.32;;;1.58;;
68192;SDS011;55012;47.562;18.414;2022-09-02T03:09:19;5.00;;;1.90;;
68192;SDS011;55012;47.562;18.414;2022-09-02T03:11:45;7.60;;;1.95;;
68192;SDS011;55012;47.562;18.414;2022-09-02T03:14:11;5.15;;;1.80;;
68192;SDS011;55012;47.562;18.414;2022-09-02T03:16:37;3.38;;;1.58;;
68192;SDS011;55012;47.562;18.414;2022-09-02T03:19:02;3.03;;;1.58;;
68192;SDS011;55012;47.562;18.414;2022-09-02T03:21:28;6.82;;;1.67;;
68192;SDS011;55012;47.562;18.414;2022-09-02T03:23:54;5.55;;;1.63;;
68192;SDS011;55012;47.562;18.414;2022-09-02T03:26:21;4.03;;;1.77;;
68192;SDS011;55012;47.562;18.414;2022-09-02T03:28:48;3.05;;;1.90;;
68192;SDS011;55012;47.562;18.414;2022-09-02T03:31:18;7.93;;;2.53;;
68192;SDS011;55012;47.562;18.414;2022-09-02T03:33:46;5.22;;;3.17;;
68192;SDS011;55012;47.562;18.414;2022-09-02T03:36:28;9.30;;;4.45;;
68192;SDS011;55012;47.562;18.414;2022-09-02T03:38:57;9.50;;;5.00;;
68192;SDS011;55012;47.562;18.414;2022-09-02T03:41:23;8.45;;;5.10;;
68192;SDS011;55012;47.562;18.414;2022-09-02T03:43:49;10.38;;;4.32;;
68192;SDS011;55012;47.562;18.414;2022-09-02T03:46:15;8.98;;;4.10;;
68192;SDS011;55012;47.562;18.414;2022-09-02T03:48:42;6.78;;;4.50;;
68192;SDS011;55012;47.562;18.414;2022-09-02T03:51:08;8.13;;;4.82;;
68192;SDS011;55012;47.562;18.414;2022-09-02T03:53:35;6.07;;;4.20;;
68192;SDS011;55012;47.562;18.414;2022-09-02T03:56:07;5.50;;;4.03;;
68192;SDS011;55012;47.562;18.414;2022-09-02T03:58:39;5.97;;;4.05;;
68192;SDS011;55012;47.562;18.414;2022-09-02T04:01:06;6.25;;;4.13;;
68192;SDS011;55012;47.562;18.414;2022-09-02T04:03:31;7.60;;;4.28;;
68192;SDS011;55012;47.562;18.414;2022-09-02T04:05:57;5.88;;;3.90;;
68192;SDS011;55012;47.562;18.414;2022-09-02T04:08:22;11.05;;;4.40;;
68192;SDS011;55012;47.562;18.414;2022-09-02T04:10:48;9.40;;;3.95;;
68192;SDS011;55012;47.562;18.414;2022-09-02T04:13:14;9.13;;;3.63;;
68192;SDS011;55012;47.562;18.414;2022-09-02T04:15:40;6.32;;;3.15;;
68192;SDS011;55012;47.562;18.414;2022-09-02T04:18:09;6.43;;;2.83;;
68192;SDS011;55012;47.562;18.414;2022-09-02T04:20:39;4.47;;;2.60;;
68192;SDS011;55012;47.562;18.414;2022-09-02T04:23:05;7.55;;;2.30;;
68192;SDS011;55012;47.562;18.414;2022-09-02T04:25:32;6.20;;;2.45;;
68192;SDS011;55012;47.562;18.414;2022-09-02T04:27:58;6.57;;;2.92;;
68192;SDS011;55012;47.562;18.414;2022-09-02T04:30:24;13.05;;;3.20;;
68192;SDS011;55012;47.562;18.414;2022-09-02T04:32:50;13.90;;;3.20;;
68192;SDS011;55012;47.562;18.414;2022-09-02T04:35:17;6.00;;;3.03;;
68192;SDS011;55012;47.562;18.414;2022-09-02T04:37:43;7.10;;;3.20;;
68192;SDS011;55012;47.562;18.414;2022-09-02T04:40:11;5.40;;;2.72;;
68192;SDS011;55012;47.562;18.414;2022-09-02T04:42:37;5.38;;;2.97;;
68192;SDS011;55012;47.562;18.414;2022-09-02T04:45:02;8.15;;;4.55;;
68192;SDS011;55012;47.562;18.414;2022-09-02T04:47:28;8.88;;;4.25;;
68192;SDS011;55012;47.562;18.414;2022-09-02T04:49:54;10.20;;;3.83;;
68192;SDS011;55012;47.562;18.414;2022-09-02T04:52:20;12.52;;;3.75;;
68192;SDS011;55012;47.562;18.414;2022-09-02T04:54:46;7.05;;;3.00;;
68192;SDS011;55012;47.562;18.414;2022-09-02T04:57:12;9.40;;;4.22;;
68192;SDS011;55012;47.562;18.414;2022-09-02T04:59:37;8.45;;;3.70;;
68192;SDS011;55012;47.562;18.414;2022-09-02T05:02:03;9.20;;;3.60;;
68192;SDS011;55012;47.562;18.414;2022-09-02T05:04:30;11.25;;;4.03;;
68192;SDS011;55012;47.562;18.414;2022-09-02T05:06:56;8.98;;;4.32;;
68192;SDS011;55012;47.562;18.414;2022-09-02T05:09:25;9.63;;;4.20;;
68192;SDS011;55012;47.562;18.414;2022-09-02T05:11:51;13.52;;;4.50;;
68192;SDS011;55012;47.562;18.414;2022-09-02T05:14:21;9.05;;;3.90;;
68192;SDS011;55012;47.562;18.414;2022-09-02T05:16:47;14.43;;;4.18;;
68192;SDS011;55012;47.562;18.414;2022-09-02T05:19:17;10.43;;;3.60;;
68192;SDS011;55012;47.562;18.414;2022-09-02T05:21:47;12.27;;;3.90;;
68192;SDS011;55012;47.562;18.414;2022-09-02T05:24:13;13.43;;;4.57;;
68192;SDS011;55012;47.562;18.414;2022-09-02T05:26:38;10.95;;;3.35;;
68192;SDS011;55012;47.562;18.414;2022-09-02T05:29:09;12.65;;;3.70;;
68192;SDS011;55012;47.562;18.414;2022-09-02T05:31:35;7.60;;;3.50;;
68192;SDS011;55012;47.562;18.414;2022-09-02T05:34:02;8.23;;;3.70;;
68192;SDS011;55012;47.562;18.414;2022-09-02T05:36:28;7.32;;;3.75;;
68192;SDS011;55012;47.562;18.414;2022-09-02T05:38:56;5.70;;;2.15;;
68192;SDS011;55012;47.562;18.414;2022-09-02T05:41:23;8.88;;;2.80;;
68192;SDS011;55012;47.562;18.414;2022-09-02T05:43:53;10.70;;;2.90;;
68192;SDS011;55012;47.562;18.414;2022-09-02T05:46:21;5.43;;;2.03;;
68192;SDS011;55012;47.562;18.414;2022-09-02T05:48:48;7.40;;;2.67;;
68192;SDS011;55012;47.562;18.414;2022-09-02T05:51:30;5.22;;;2.30;;
68192;SDS011;55012;47.562;18.414;2022-09-02T05:53:58;6.85;;;2.28;;
68192;SDS011;55012;47.562;18.414;2022-09-02T05:56:25;4.32;;;2.58;;
68192;SDS011;55012;47.562;18.414;2022-09-02T05:58:51;6.90;;;2.17;;
68192;SDS011;55012;47.562;18.414;2022-09-02T06:01:19;2.78;;;1.77;;
68192;SDS011;55012;47.562;18.414;2022-09-02T06:03:45;4.43;;;2.00;;
68192;SDS011;55012;47.562;18.414;2022-09-02T06:06:11;5.93;;;1.60;;
68192;SDS011;55012;47.562;18.414;2022-09-02T06:08:37;7.30;;;2.30;;
68192;SDS011;55012;47.562;18.414;2022-09-02T06:11:06;5.60;;;1.58;;
68192;SDS011;55012;47.562;18.414;2022-09-02T06:13:34;3.70;;;1.50;;
68192;SDS011;55012;47.562;18.414;2022-09-02T06:16:01;5.72;;;1.90;;
68192;SDS011;55012;47.562;18.414;2022-09-02T06:18:27;4.15;;;1.67;;
68192;SDS011;55012;47.562;18.414;2022-09-02T06:20:53;3.38;;;1.65;;
68192;SDS011;55012;47.562;18.414;2022-09-02T06:23:19;4.88;;;1.98;;
68192;SDS011;55012;47.562;18.414;2022-09-02T06:25:46;5.65;;;1.90;;
68192;SDS011;55012;47.562;18.414;2022-09-02T06:28:13;7.47;;;2.42;;
68192;SDS011;55012;47.562;18.414;2022-09-02T06:30:41;11.00;;;5.03;;
68192;SDS011;55012;47.562;18.414;2022-09-02T06:33:08;5.15;;;1.98;;
68192;SDS011;55012;47.562;18.414;2022-09-02T06:35:38;5.22;;;1.50;;
68192;SDS011;55012;47.562;18.414;2022-09-02T06:38:07;2.88;;;1.40;;
68192;SDS011;55012;47.562;18.414;2022-09-02T06:40:34;2.85;;;1.30;;
68192;SDS011;55012;47.562;18.414;2022-09-02T06:43:00;2.92;;;1.30;;
68192;SDS011;55012;47.562;18.414;2022-09-02T06:45:26;2.85;;;1.70;;
68192;SDS011;55012;47.562;18.414;2022-09-02T06:47:51;4.20;;;1.80;;
68192;SDS011;55012;47.562;18.414;2022-09-02T06:50:17;4.93;;;2.35;;
68192;SDS011;55012;47.562;18.414;2022-09-02T06:52:44;4.60;;;2.33;;
68192;SDS011;55012;47.562;18.414;2022-09-02T06:55:10;3.90;;;1.42;;
68192;SDS011;55012;47.562;18.414;2022-09-02T06:57:36;4.20;;;1.92;;
68192;SDS011;55012;47.562;18.414;2022-09-02T07:00:06;2.80;;;1.77;;
68192;SDS011;55012;47.562;18.414;2022-09-02T07:02:33;5.10;;;1.70;;
68192;SDS011;55012;47.562;18.414;2022-09-02T07:04:59;2.50;;;1.15;;
68192;SDS011;55012;47.562;18.414;2022-09-02T07:07:34;4.97;;;1.58;;
68192;SDS011;55012;47.562;18.414;2022-09-02T07:10:00;3.50;;;1.40;;
68192;SDS011;55012;47.562;18.414;2022-09-02T07:12:26;5.05;;;1.40;;
68192;SDS011;55012;47.562;18.414;2022-09-02T07:14:52;7.13;;;1.50;;
68192;SDS011;55012;47.562;18.414;2022-09-02T07:17:18;4.25;;;1.42;;
68192;SDS011;55012;47.562;18.414;2022-09-02T07:19:46;3.97;;;1.35;;
68192;SDS011;55012;47.562;18.414;2022-09-02T07:22:13;3.05;;;1.50;;
68192;SDS011;55012;47.562;18.414;2022-09-02T07:24:39;5.80;;;3.05;;
68192;SDS011;55012;47.562;18.414;2022-09-02T07:27:04;3.25;;;1.60;;
68192;SDS011;55012;47.562;18.414;2022-09-02T07:29:30;3.60;;;1.85;;
68192;SDS011;55012;47.562;18.414;2022-09-02T07:31:56;5.13;;;2.00;;
68192;SDS011;55012;47.562;18.414;2022-09-02T07:34:22;1.77;;;1.20;;
68192;SDS011;55012;47.562;18.414;2022-09-02T07:36:48;5.25;;;1.90;;
68192;SDS011;55012;47.562;18.414;2022-09-02T07:39:14;2.22;;;1.00;;
68192;SDS011;55012;47.562;18.414;2022-09-02T07:41:42;4.10;;;1.23;;
68192;SDS011;55012;47.562;18.414;2022-09-02T07:44:10;2.90;;;1.20;;
68192;SDS011;55012;47.562;18.414;2022-09-02T07:46:37;2.67;;;1.10;;
68192;SDS011;55012;47.562;18.414;2022-09-02T07:49:05;5.00;;;1.50;;
68192;SDS011;55012;47.562;18.414;2022-09-02T07:51:33;2.95;;;1.75;;
68192;SDS011;55012;47.562;18.414;2022-09-02T07:54:00;3.92;;;1.20;;
68192;SDS011;55012;47.562;18.414;2022-09-02T07:56:27;7.63;;;5.00;;
68192;SDS011;55012;47.562;18.414;2022-09-02T07:58:53;4.68;;;1.88;;
68192;SDS011;55012;47.562;18.414;2022-09-02T08:01:19;3.53;;;2.08;;
68192;SDS011;55012;47.562;18.414;2022-09-02T08:03:44;2.22;;;1.38;;
68192;SDS011;55012;47.562;18.414;2022-09-02T08:06:10;1.98;;;1.40;;
68192;SDS011;55012;47.562;18.414;2022-09-02T08:08:37;3.20;;;1.33;;
68192;SDS011;55012;47.562;18.414;2022-09-02T08:11:04;2.95;;;1.13;;
68192;SDS011;55012;47.562;18.414;2022-09-02T08:13:30;2.67;;;1.10;;
68192;SDS011;55012;47.562;18.414;2022-09-02T08:15:56;1.80;;;1.20;;
68192;SDS011;55012;47.562;18.414;2022-09-02T08:18:22;2.08;;;1.00;;
68192;SDS011;55012;47.562;18.414;2022-09-02T08:20:47;2.50;;;1.15;;
68192;SDS011;55012;47.562;18.414;2022-09-02T08:23:13;1.67;;;1.10;;
68192;SDS011;55012;47.562;18.414;2022-09-02T08:25:38;2.97;;;1.10;;
68192;SDS011;55012;47.562;18.414;2022-09-02T08:28:05;2.97;;;1.00;;
68192;SDS011;55012;47.562;18.414;2022-09-02T08:30:31;2.35;;;1.27;;
68192;SDS011;55012;47.562;18.414;2022-09-02T08:32:57;4.15;;;1.27;;
68192;SDS011;55012;47.562;18.414;2022-09-02T08:35:23;3.03;;;1.65;;
68192;SDS011;55012;47.562;18.414;2022-09-02T08:37:49;1.75;;;1.15;;
68192;SDS011;55012;47.562;18.414;2022-09-02T08:40:16;1.88;;;1.30;;
68192;SDS011;55012;47.562;18.414;2022-09-02T08:42:52;2.30;;;1.30;;
68192;SDS011;55012;47.562;18.414;2022-09-02T08:48:07;2.08;;;1.30;;
68192;SDS011;55012;47.562;18.414;2022-09-02T08:50:40;1.83;;;1.20;;
68192;SDS011;55012;47.562;18.414;2022-09-02T08:55:35;1.73;;;1.10;;
68192;SDS011;55012;47.562;18.414;2022-09-02T09:00:36;2.58;;;1.40;;
68192;SDS011;55012;47.562;18.414;2022-09-02T09:03:22;2.67;;;1.30;;
68192;SDS011;55012;47.562;18.414;2022-09-02T09:11:08;1.60;;;1.30;;
68192;SDS011;55012;47.562;18.414;2022-09-02T09:14:23;2.50;;;1.85;;
68192;SDS011;55012;47.562;18.414;2022-09-02T09:16:58;4.30;;;2.72;;
68192;SDS011;55012;47.562;18.414;2022-09-02T09:19:36;5.18;;;2.63;;
68192;SDS011;55012;47.562;18.414;2022-09-02T09:22:20;2.25;;;1.65;;
68192;SDS011;55012;47.562;18.414;2022-09-02T09:24:50;2.58;;;1.70;;
68192;SDS011;55012;47.562;18.414;2022-09-02T09:27:19;1.55;;;1.30;;
68192;SDS011;55012;47.562;18.414;2022-09-02T09:29:46;1.92;;;1.33;;
68192;SDS011;55012;47.562;18.414;2022-09-02T09:35:04;3.60;;;1.80;;
68192;SDS011;55012;47.562;18.414;2022-09-02T09:37:39;2.20;;;1.80;;
68192;SDS011;55012;47.562;18.414;2022-09-02T09:40:26;3.45;;;1.63;;
68192;SDS011;55012;47.562;18.414;2022-09-02T09:50:40;1.75;;;1.40;;
68192;SDS011;55012;47.562;18.414;2022-09-02T09:53:19;2.42;;;1.60;;
68192;SDS011;55012;47.562;18.414;2022-09-02T09:58:22;2.05;;;1.70;;
68192;SDS011;55012;47.562;18.414;2022-09-02T10:00:54;3.08;;;1.80;;
68192;SDS011;55012;47.562;18.414;2022-09-02T10:03:24;2.55;;;1.90;;
68192;SDS011;55012;47.562;18.414;2022-09-02T10:05:55;3.78;;;1.92;;
68192;SDS011;55012;47.562;18.414;2022-09-02T10:08:26;3.95;;;1.95;;
68192;SDS011;55012;47.562;18.414;2022-09-02T10:11:03;2.70;;;1.80;;
68192;SDS011;55012;47.562;18.414;2022-09-02T10:13:33;2.35;;;1.70;;
68192;SDS011;55012;47.562;18.414;2022-09-02T10:23:49;4.35;;;1.75;;
68192;SDS011;55012;47.562;18.414;2022-09-02T10:26:46;2.00;;;1.58;;
68192;SDS011;55012;47.562;18.414;2022-09-02T10:34:20;4.95;;;1.40;;
68192;SDS011;55012;47.562;18.414;2022-09-02T10:37:10;2.83;;;1.50;;
68192;SDS011;55012;47.562;18.414;2022-09-02T10:42:23;2.05;;;1.40;;
68192;SDS011;55012;47.562;18.414;2022-09-02T10:45:12;1.10;;;1.00;;
68192;SDS011;55012;47.562;18.414;2022-09-02T10:47:52;2.42;;;1.15;;
68192;SDS011;55012;47.562;18.414;2022-09-02T10:53:28;3.40;;;1.40;;
68192;SDS011;55012;47.562;18.414;2022-09-02T10:56:05;2.33;;;1.50;;
68192;SDS011;55012;47.562;18.414;2022-09-02T10:58:40;3.55;;;1.25;;
68192;SDS011;55012;47.562;18.414;2022-09-02T11:01:07;1.95;;;1.38;;
68192;SDS011;55012;47.562;18.414;2022-09-02T11:06:11;1.35;;;1.17;;
68192;SDS011;55012;47.562;18.414;2022-09-02T11:08:45;1.88;;;1.38;;
68192;SDS011;55012;47.562;18.414;2022-09-02T11:11:25;2.20;;;1.27;;
68192;SDS011;55012;47.562;18.414;2022-09-02T11:16:35;2.53;;;1.30;;
68192;SDS011;55012;47.562;18.414;2022-09-02T11:19:21;2.28;;;1.80;;
68192;SDS011;55012;47.562;18.414;2022-09-02T11:22:11;2.15;;;1.23;;
68192;SDS011;55012;47.562;18.414;2022-09-02T11:24:59;1.60;;;1.20;;
68192;SDS011;55012;47.562;18.414;2022-09-02T11:27:36;3.03;;;1.08;;
68192;SDS011;55012;47.562;18.414;2022-09-02T11:35:36;2.42;;;1.20;;
68192;SDS011;55012;47.562;18.414;2022-09-02T11:49:42;7.53;;;2.42;;
68192;SDS011;55012;47.562;18.414;2022-09-02T11:57:33;1.70;;;1.15;;
68192;SDS011;55012;47.562;18.414;2022-09-02T12:07:56;1.77;;;1.33;;
68192;SDS011;55012;47.562;18.414;2022-09-02T12:11:32;1.52;;;1.20;;
68192;SDS011;55012;47.562;18.414;2022-09-02T12:21:18;1.85;;;1.10;;
68192;SDS011;55012;47.562;18.414;2022-09-02T12:31:40;4.10;;;1.20;;
68192;SDS011;55012;47.562;18.414;2022-09-02T12:47:25;2.03;;;1.10;;
68192;SDS011;55012;47.562;18.414;2022-09-02T12:50:09;1.60;;;1.17;;
68192;SDS011;55012;47.562;18.414;2022-09-02T12:52:44;2.22;;;1.02;;
68192;SDS011;55012;47.562;18.414;2022-09-02T12:55:17;1.13;;;1.02;;
68192;SDS011;55012;47.562;18.414;2022-09-02T13:00:49;1.17;;;1.08;;
68192;SDS011;55012;47.562;18.414;2022-09-02T13:06:34;1.42;;;1.10;;
68192;SDS011;55012;47.562;18.414;2022-09-02T13:20:44;1.73;;;1.05;;
68192;SDS011;55012;47.562;18.414;2022-09-02T13:31:27;2.13;;;1.40;;
68192;SDS011;55012;47.562;18.414;2022-09-02T13:34:03;3.03;;;1.10;;
68192;SDS011;55012;47.562;18.414;2022-09-02T13:36:42;1.50;;;1.05;;
68192;SDS011;55012;47.562;18.414;2022-09-02T13:39:30;2.08;;;1.10;;
68192;SDS011;55012;47.562;18.414;2022-09-02T13:41:55;1.50;;;1.00;;
68192;SDS011;55012;47.562;18.414;2022-09-02T13:44:24;2.05;;;1.10;;
68192;SDS011;55012;47.562;18.414;2022-09-02T13:47:03;2.85;;;1.00;;
68192;SDS011;55012;47.562;18.414;2022-09-02T13:49:39;1.60;;;1.00;;
68192;SDS011;55012;47.562;18.414;2022-09-02T13:52:06;1.20;;;0.95;;
68192;SDS011;55012;47.562;18.414;2022-09-02T13:54:37;2.25;;;1.10;;
68192;SDS011;55012;47.562;18.414;2022-09-02T13:57:09;1.55;;;1.00;;
68192;SDS011;55012;47.562;18.414;2022-09-02T13:59:38;1.75;;;1.00;;
68192;SDS011;55012;47.562;18.414;2022-09-02T14:02:30;3.40;;;1.15;;
68192;SDS011;55012;47.562;18.414;2022-09-02T14:05:00;2.55;;;1.30;;
68192;SDS011;55012;47.562;18.414;2022-09-02T14:07:36;1.70;;;1.00;;
68192;SDS011;55012;47.562;18.414;2022-09-02T14:10:06;1.35;;;1.10;;
68192;SDS011;55012;47.562;18.414;2022-09-02T14:12:35;3.72;;;1.00;;
68192;SDS011;55012;47.562;18.414;2022-09-02T14:15:01;3.28;;;1.02;;
68192;SDS011;55012;47.562;18.414;2022-09-02T14:17:29;2.00;;;1.00;;
68192;SDS011;55012;47.562;18.414;2022-09-02T14:20:08;1.63;;;1.20;;
68192;SDS011;55012;47.562;18.414;2022-09-02T14:22:33;4.72;;;1.00;;
68192;SDS011;55012;47.562;18.414;2022-09-02T14:25:06;3.72;;;1.00;;
68192;SDS011;55012;47.562;18.414;2022-09-02T14:27:33;1.87;;;1.03;;
68192;SDS011;55012;47.562;18.414;2022-09-02T14:29:59;1.60;;;1.30;;
68192;SDS011;55012;47.562;18.414;2022-09-02T14:32:27;1.77;;;1.05;;
68192;SDS011;55012;47.562;18.414;2022-09-02T14:37:48;1.38;;;0.98;;
68192;SDS011;55012;47.562;18.414;2022-09-02T14:40:40;1.58;;;1.10;;
68192;SDS011;55012;47.562;18.414;2022-09-02T14:43:12;5.28;;;1.13;;
68192;SDS011;55012;47.562;18.414;2022-09-02T14:45:40;2.08;;;0.90;;
68192;SDS011;55012;47.562;18.414;2022-09-02T14:48:20;1.53;;;0.90;;
68192;SDS011;55012;47.562;18.414;2022-09-02T14:50:47;6.75;;;1.20;;
68192;SDS011;55012;47.562;18.414;2022-09-02T14:53:18;2.35;;;1.10;;
68192;SDS011;55012;47.562;18.414;2022-09-02T14:58:17;2.25;;;1.10;;
68192;SDS011;55012;47.562;18.414;2022-09-02T15:00:45;2.72;;;1.00;;
68192;SDS011;55012;47.562;18.414;2022-09-02T15:03:15;1.75;;;1.08;;
68192;SDS011;55012;47.562;18.414;2022-09-02T15:05:41;4.18;;;1.20;;
68192;SDS011;55012;47.562;18.414;2022-09-02T15:08:07;3.95;;;1.17;;
68192;SDS011;55012;47.562;18.414;2022-09-02T15:10:33;2.50;;;1.10;;
68192;SDS011;55012;47.562;18.414;2022-09-02T15:13:00;3.00;;;0.98;;
68192;SDS011;55012;47.562;18.414;2022-09-02T15:15:25;1.80;;;1.10;;
68192;SDS011;55012;47.562;18.414;2022-09-02T15:17:52;3.88;;;1.13;;
68192;SDS011;55012;47.562;18.414;2022-09-02T15:20:18;4.03;;;1.00;;
68192;SDS011;55012;47.562;18.414;2022-09-02T15:22:45;2.60;;;1.30;;
68192;SDS011;55012;47.562;18.414;2022-09-02T15:25:11;2.78;;;1.08;;
68192;SDS011;55012;47.562;18.414;2022-09-02T15:27:37;3.95;;;1.40;;
68192;SDS011;55012;47.562;18.414;2022-09-02T15:30:03;2.17;;;1.30;;
68192;SDS011;55012;47.562;18.414;2022-09-02T15:32:31;5.10;;;1.60;;
68192;SDS011;55012;47.562;18.414;2022-09-02T15:34:56;2.78;;;1.50;;
68192;SDS011;55012;47.562;18.414;2022-09-02T15:37:22;6.38;;;1.48;;
68192;SDS011;55012;47.562;18.414;2022-09-02T15:39:49;2.97;;;1.35;;
68192;SDS011;55012;47.562;18.414;2022-09-02T15:42:14;3.63;;;1.40;;
68192;SDS011;55012;47.562;18.414;2022-09-02T15:44:42;3.67;;;1.48;;
68192;SDS011;55012;47.562;18.414;2022-09-02T15:47:07;3.35;;;1.50;;
68192;SDS011;55012;47.562;18.414;2022-09-02T15:49:33;4.75;;;1.40;;
68192;SDS011;55012;47.562;18.414;2022-09-02T15:51:58;2.55;;;1.52;;
68192;SDS011;55012;47.562;18.414;2022-09-02T15:54:24;3.63;;;1.30;;
68192;SDS011;55012;47.562;18.414;2022-09-02T15:56:53;3.25;;;1.65;;
68192;SDS011;55012;47.562;18.414;2022-09-02T15:59:21;3.35;;;1.40;;
68192;SDS011;55012;47.562;18.414;2022-09-02T16:01:48;5.95;;;1.40;;
68192;SDS011;55012;47.562;18.414;2022-09-02T16:04:15;3.90;;;2.30;;
68192;SDS011;55012;47.562;18.414;2022-09-02T16:06:41;2.83;;;1.50;;
68192;SDS011;55012;47.562;18.414;2022-09-02T16:09:10;2.78;;;1.63;;
68192;SDS011;55012;47.562;18.414;2022-09-02T16:11:41;4.47;;;1.55;;
68192;SDS011;55012;47.562;18.414;2022-09-02T16:14:14;2.60;;;1.48;;
68192;SDS011;55012;47.562;18.414;2022-09-02T16:16:39;5.10;;;1.70;;
68192;SDS011;55012;47.562;18.414;2022-09-02T16:19:06;2.72;;;1.60;;
68192;SDS011;55012;47.562;18.414;2022-09-02T16:21:34;7.00;;;2.97;;
68192;SDS011;55012;47.562;18.414;2022-09-02T16:24:03;8.55;;;2.05;;
68192;SDS011;55012;47.562;18.414;2022-09-02T16:26:29;5.65;;;2.60;;
68192;SDS011;55012;47.562;18.414;2022-09-02T16:28:58;6.47;;;3.30;;
68192;SDS011;55012;47.562;18.414;2022-09-02T16:31:25;4.90;;;1.70;;
68192;SDS011;55012;47.562;18.414;2022-09-02T16:33:53;3.88;;;2.00;;
68192;SDS011;55012;47.562;18.414;2022-09-02T16:36:21;2.80;;;1.40;;
68192;SDS011;55012;47.562;18.414;2022-09-02T16:38:48;3.10;;;1.42;;
68192;SDS011;55012;47.562;18.414;2022-09-02T16:41:23;7.18;;;3.97;;
68192;SDS011;55012;47.562;18.414;2022-09-02T16:43:55;4.72;;;1.60;;
68192;SDS011;55012;47.562;18.414;2022-09-02T16:46:23;6.97;;;1.73;;
68192;SDS011;55012;47.562;18.414;2022-09-02T16:48:49;2.75;;;1.67;;
68192;SDS011;55012;47.562;18.414;2022-09-02T16:51:15;2.67;;;1.70;;
68192;SDS011;55012;47.562;18.414;2022-09-02T16:53:41;3.25;;;1.70;;
68192;SDS011;55012;47.562;18.414;2022-09-02T16:56:10;4.75;;;1.70;;
68192;SDS011;55012;47.562;18.414;2022-09-02T16:58:37;5.78;;;2.20;;
68192;SDS011;55012;47.562;18.414;2022-09-02T17:01:05;5.22;;;2.88;;
68192;SDS011;55012;47.562;18.414;2022-09-02T17:03:32;5.68;;;3.33;;